sensor_id;sensor_type;location;lat;lon;timestamp;pressure;altitude;pressure_sealevel;temperature;humidity
7586;BME280;12459;42.646;23.292;2023-07-02T00:07:58;93027.66;;;20.84;93.01
7586;BME280;12459;42.646;23.292;2023-07-02T00:23:00;92853.47;;;19.81;92.25
7586;BME280;12459;42.646;23.292;2023-07-02T00:38:02;93015.69;;;20.76;93.56
7586;BME280;12459;42.646;23.292;2023-07-02T00:53:04;92988.28;;;20.33;96.89
7586;BME280;12459;42.646;23.292;2023-07-02T01:08:06;93057.06;;;20.80;98.15
7586;BME280;12459;42.646;23.292;2023-07-02T01:23:09;93128.03;;;20.91;100.00
7586;BME280;12459;42.646;23.292;2023-07-02T01:38:11;93080.25;;;20.96;100.00
7586;BME280;12459;42.646;23.292;2023-07-02T01:53:12;93062.25;;;20.78;100.00
7586;BME280;12459;42.646;23.292;2023-07-02T02:08:14;93019.63;;;20.49;100.00
7586;BME280;12459;42.646;23.292;2023-07-02T02:23:16;93028.66;;;20.61;100.00
7586;BME280;12459;42.646;23.292;2023-07-02T02:38:17;92992.72;;;20.57;100.00
7586;BME280;12459;42.646;23.292;2023-07-02T02:53:19;92930.16;;;19.85;100.00
7586;BME280;12459;42.646;23.292;2023-07-02T03:08:21;92911.31;;;19.61;100.00
7586;BME280;12459;42.646;23.292;2023-07-02T03:23:23;93086.75;;;20.78;100.00
7586;BME280;12459;42.646;23.292;2023-07-02T03:38:24;93067.22;;;20.54;100.00
7586;BME280;12459;42.646;23.292;2023-07-02T03:53:26;92938.97;;;20.00;100.00
7586;BME280;12459;42.646;23.292;2023-07-02T04:08:28;93059.53;;;20.78;100.00
7586;BME280;12459;42.646;23.292;2023-07-02T04:23:29;93043.06;;;20.67;100.00
7586;BME280;12459;42.646;23.292;2023-07-02T04:38:32;92956.88;;;19.86;100.00
7586;BME280;12459;42.646;23.292;2023-07-02T04:53:33;92977.09;;;20.05;100.00
7586;BME280;12459;42.646;23.292;2023-07-02T05:08:35;93150.75;;;21.66;100.00
7586;BME280;12459;42.646;23.292;2023-07-02T05:23:38;93124.06;;;21.44;100.00
7586;BME280;12459;42.646;23.292;2023-07-02T05:38:39;93117.72;;;21.58;100.00
7586;BME280;12459;42.646;23.292;2023-07-02T05:53:41;93120.19;;;21.56;100.00
7586;BME280;12459;42.646;23.292;2023-07-02T06:08:43;93038.16;;;21.23;100.00
7586;BME280;12459;42.646;23.292;2023-07-02T06:23:45;93097.91;;;21.63;100.00
7586;BME280;12459;42.646;23.292;2023-07-02T06:38:47;93064.53;;;21.80;100.00
7586;BME280;12459;42.646;23.292;2023-07-02T06:53:49;93084.00;;;22.47;100.00
7586;BME280;12459;42.646;23.292;2023-07-02T07:08:51;93034.97;;;22.10;100.00
7586;BME280;12459;42.646;23.292;2023-07-02T07:23:52;93105.00;;;22.83;100.00
7586;BME280;12459;42.646;23.292;2023-07-02T07:38:54;93070.06;;;22.34;100.00
7586;BME280;12459;42.646;23.292;2023-07-02T07:53:59;92952.78;;;22.02;96.48
7586;BME280;12459;42.646;23.292;2023-07-02T08:09:01;93061.31;;;23.06;95.88
7586;BME280;12459;42.646;23.292;2023-07-02T08:24:03;93007.38;;;23.29;94.89
7586;BME280;12459;42.646;23.292;2023-07-02T08:39:05;93083.34;;;24.25;90.22
7586;BME280;12459;42.646;23.292;2023-07-02T08:54:07;93125.94;;;24.90;87.96
7586;BME280;12459;42.646;23.292;2023-07-02T09:09:08;93020.19;;;24.64;86.22
7586;BME280;12459;42.646;23.292;2023-07-02T09:24:22;93048.94;;;25.29;81.76
7586;BME280;12459;42.646;23.292;2023-07-02T09:39:32;93120.41;;;26.07;83.46
7586;BME280;12459;42.646;23.292;2023-07-02T09:54:34;93083.63;;;25.56;82.11
7586;BME280;12459;42.646;23.292;2023-07-02T10:09:42;93027.63;;;25.95;82.25
7586;BME280;12459;42.646;23.292;2023-07-02T10:24:55;93052.06;;;26.66;77.77
7586;BME280;12459;42.646;23.292;2023-07-02T10:39:58;93036.28;;;27.23;76.08
7586;BME280;12459;42.646;23.292;2023-07-02T10:55:00;93031.56;;;27.37;75.16
7586;BME280;12459;42.646;23.292;2023-07-02T11:10:02;93027.31;;;26.85;70.47
7586;BME280;12459;42.646;23.292;2023-07-02T11:25:17;93007.94;;;27.86;75.11
7586;BME280;12459;42.646;23.292;2023-07-02T11:40:19;93073.75;;;28.82;72.61
7586;BME280;12459;42.646;23.292;2023-07-02T11:55:21;93037.25;;;28.29;70.59
7586;BME280;12459;42.646;23.292;2023-07-02T12:10:23;93090.97;;;27.64;64.88
7586;BME280;12459;42.646;23.292;2023-07-02T12:25:24;93098.19;;;26.30;84.26
7586;BME280;12459;42.646;23.292;2023-07-02T12:40:26;93045.19;;;24.44;100.00
7586;BME280;12459;42.646;23.292;2023-07-02T12:55:28;93042.28;;;24.31;100.00
7586;BME280;12459;42.646;23.292;2023-07-02T13:10:30;93086.03;;;25.05;100.00
7586;BME280;12459;42.646;23.292;2023-07-02T13:25:32;93020.97;;;24.95;99.82
7586;BME280;12459;42.646;23.292;2023-07-02T13:40:34;93004.78;;;24.56;100.00
7586;BME280;12459;42.646;23.292;2023-07-02T13:55:35;92992.28;;;24.13;100.00
7586;BME280;12459;42.646;23.292;2023-07-02T14:10:37;93069.03;;;24.60;100.00
7586;BME280;12459;42.646;23.292;2023-07-02T14:25:39;93042.53;;;24.27;100.00
7586;BME280;12459;42.646;23.292;2023-07-02T14:40:42;93064.47;;;24.16;99.72
7586;BME280;12459;42.646;23.292;2023-07-02T14:55:45;93047.63;;;23.73;100.00
7586;BME280;12459;42.646;23.292;2023-07-02T15:10:50;92937.72;;;24.27;95.08
7586;BME280;12459;42.646;23.292;2023-07-02T15:26:02;93101.59;;;25.87;89.02
7586;BME280;12459;42.646;23.292;2023-07-02T15:41:17;93087.31;;;25.94;74.47
7586;BME280;12459;42.646;23.292;2023-07-02T15:56:19;93027.38;;;25.14;78.83
7586;BME280;12459;42.646;23.292;2023-07-02T16:11:21;93002.00;;;24.61;80.08
7586;BME280;12459;42.646;23.292;2023-07-02T16:26:22;93130.09;;;25.49;79.83
7586;BME280;12459;42.646;23.292;2023-07-02T16:41:24;93143.50;;;25.58;79.49
7586;BME280;12459;42.646;23.292;2023-07-02T16:56:26;93068.06;;;24.52;85.94
7586;BME280;12459;42.646;23.292;2023-07-02T17:11:28;93151.06;;;24.25;94.84
7586;BME280;12459;42.646;23.292;2023-07-02T17:26:30;93083.19;;;23.84;95.30
7586;BME280;12459;42.646;23.292;2023-07-02T17:41:31;93109.06;;;23.72;95.65
7586;BME280;12459;42.646;23.292;2023-07-02T17:56:34;93143.91;;;23.66;94.77
7586;BME280;12459;42.646;23.292;2023-07-02T18:11:36;93114.28;;;23.25;98.35
7586;BME280;12459;42.646;23.292;2023-07-02T18:26:38;93147.59;;;23.29;92.07
7586;BME280;12459;42.646;23.292;2023-07-02T18:41:40;93293.19;;;23.89;93.79
7586;BME280;12459;42.646;23.292;2023-07-02T18:56:42;93155.47;;;22.93;89.64
7586;BME280;12459;42.646;23.292;2023-07-02T19:11:44;93167.78;;;22.72;88.82
7586;BME280;12459;42.646;23.292;2023-07-02T19:26:46;93105.38;;;22.00;90.79
7586;BME280;12459;42.646;23.292;2023-07-02T19:41:49;93267.06;;;23.01;92.77
7586;BME280;12459;42.646;23.292;2023-07-02T19:56:51;93117.63;;;21.79;91.33
7586;BME280;12459;42.646;23.292;2023-07-02T20:11:53;93292.91;;;23.00;90.29
7586;BME280;12459;42.646;23.292;2023-07-02T20:26:56;93255.34;;;22.52;90.34
7586;BME280;12459;42.646;23.292;2023-07-02T20:41:58;93230.06;;;22.20;90.53
7586;BME280;12459;42.646;23.292;2023-07-02T20:57:00;93229.56;;;22.16;92.32
7586;BME280;12459;42.646;23.292;2023-07-02T21:12:02;93191.56;;;21.55;95.26
7586;BME280;12459;42.646;23.292;2023-07-02T21:27:04;93114.25;;;20.80;96.70
7586;BME280;12459;42.646;23.292;2023-07-02T21:42:06;93305.28;;;21.95;97.90
7586;BME280;12459;42.646;23.292;2023-07-02T21:57:08;93175.41;;;20.99;97.50
7586;BME280;12459;42.646;23.292;2023-07-02T22:12:10;93183.16;;;21.07;96.17
7586;BME280;12459;42.646;23.292;2023-07-02T22:27:12;93169.47;;;21.01;96.43
7586;BME280;12459;42.646;23.292;2023-07-02T22:42:13;93216.19;;;21.14;100.00
7586;BME280;12459;42.646;23.292;2023-07-02T22:57:15;93374.91;;;22.37;99.76
7586;BME280;12459;42.646;23.292;2023-07-02T23:12:17;93265.09;;;21.70;100.00
7586;BME280;12459;42.646;23.292;2023-07-02T23:27:19;93009.22;;;19.81;100.00
7586;BME280;12459;42.646;23.292;2023-07-02T23:42:20;93356.41;;;22.20;99.57
7586;BME280;12459;42.646;23.292;2023-07-02T23:57:22;93204.00;;;21.10;100.00
